Αρχική σελίδα
METAR-TAF:

METAR-TAF

Αεροδρόμια :

Council Bluffs, Αϊόβα, Ηνωμένες Πολιτείες Αμερικής

γεωγραφικό πλάτος: 41-16N, γεωγραφικό μήκος: 095-46W, υψόμετρο: 382 μ

Παρών καιρός

Η αναφορά έγινε 12 λεπτά πριν, στις 10:55 UTC
Άνεμος 9 kt από ΝA
Θερμοκρασία 19°C
Υγρασία 100%
Πίεση 1012 hPa
Ορατότητα: 0.4 χλμ
Νεφοσκεπής σε ύψος 200 πόδια
ομίχλη

METAR: KCBF 191055Z AUTO 13009KT 1/4SM FG OVC002 19/19 A2988 RMK AO2

Χρόνος: 06:07 (11:07 UTC)


TAF: λείπει

Μετεωρολογικές αναφορές και προγνώσεις για περισσότερα από 4000 αεροδρόμια (δελτία METAR και TAF).

Οι διαθέσιμοι σταθμοί απεικονίζονται στο χάρτη με κίτρινες και κόκκινες κουκκίδες.

Μετακινήστε το ποντίκι πάνω από τις κουκκίδες για να δείτε το όνομα του σταθμού.

Στη συνέχεια, κάντε κλικ για να δείτε τις μετεωρολογικές αναφορές και τις προγνώσεις καιρού.

Για να αλλάξετε το χάρτη: κάντε κλικ στα πράσινα κουμπιά με τον μαύρο σταυρό για να ζουμάρετε, στο πράσινο κουμπί με την παύλα για να αφαιρέσετε το ζουμ ή στα πράσινα βέλη για να αντιπαραβάλλετε χάρτες.


METAR-TAF: